createdAt,value
2022-10-07T05:32:05.404Z,5.82
2022-10-07T05:34:32.875Z,6.22
2022-10-07T05:37:00.084Z,4.60
2022-10-07T05:39:27.305Z,4.50
2022-10-07T05:41:54.986Z,4.15
2022-10-07T05:44:22.149Z,4.40
2022-10-07T05:46:49.809Z,4.22
2022-10-07T05:49:16.982Z,4.85
2022-10-07T05:51:47.329Z,3.72
2022-10-07T05:54:15.514Z,4.78
2022-10-07T05:56:43.014Z,4.78
2022-10-07T05:59:10.669Z,5.20
2022-10-07T06:01:42.179Z,6.13
2022-10-07T06:04:12.103Z,4.22
2022-10-07T06:06:42.918Z,3.97
2022-10-07T06:09:31.840Z,4.00
2022-10-07T06:12:19.367Z,4.63
2022-10-07T06:14:46.823Z,4.93
2022-10-07T06:17:14.375Z,4.43
2022-10-07T06:19:42.669Z,3.58
2022-10-07T06:22:15.127Z,4.47
2022-10-07T06:24:43.423Z,5.00
2022-10-07T06:27:11.586Z,4.25
2022-10-07T06:29:39.346Z,4.93
2022-10-07T06:32:06.888Z,6.45
2022-10-07T06:34:34.119Z,4.18
2022-10-07T06:37:01.689Z,5.05
2022-10-07T06:39:29.457Z,5.00
2022-10-07T06:41:57.168Z,4.28
2022-10-07T06:44:24.568Z,4.05
2022-10-07T06:46:51.816Z,4.22
2022-10-07T06:49:19.123Z,3.47
2022-10-07T06:51:47.555Z,3.60
2022-10-07T06:54:14.857Z,3.08
2022-10-07T06:56:42.225Z,3.90
2022-10-07T06:59:09.641Z,2.90
2022-10-07T07:01:37.269Z,2.80
2022-10-07T07:04:04.588Z,3.30
2022-10-07T07:06:36.808Z,3.20
2022-10-07T07:09:05.399Z,3.10
2022-10-07T07:11:37.071Z,3.10
2022-10-07T07:14:05.793Z,3.35
2022-10-07T07:16:33.669Z,2.67
2022-10-07T07:19:04.097Z,2.63
2022-10-07T07:21:33.551Z,3.65
2022-10-07T07:24:02.615Z,2.95
2022-10-07T07:26:30.308Z,3.10
2022-10-07T07:29:01.396Z,2.78
2022-10-07T07:31:32.358Z,2.50
2022-10-07T07:34:11.446Z,3.22
2022-10-07T07:36:44.508Z,3.40
2022-10-07T07:41:48.640Z,3.80
2022-10-07T07:44:22.217Z,3.55
2022-10-07T07:46:52.229Z,3.05
2022-10-07T07:49:34.189Z,3.67
2022-10-07T07:52:08.781Z,2.58
2022-10-07T07:54:37.905Z,2.33
2022-10-07T07:57:05.409Z,2.50
2022-10-07T07:59:33.160Z,3.00
2022-10-07T08:02:25.375Z,3.53
2022-10-07T08:05:30.584Z,2.72
2022-10-07T08:08:06.841Z,2.45
2022-10-07T08:10:43.318Z,2.85
2022-10-07T08:13:11.671Z,2.25
2022-10-07T08:15:39.199Z,3.08
2022-10-07T08:18:08.855Z,3.05
2022-10-07T08:20:40.050Z,3.67
2022-10-07T08:23:10.330Z,2.75
2022-10-07T08:25:37.976Z,4.30
2022-10-07T08:28:10.651Z,2.72
2022-10-07T08:33:18.674Z,4.47
2022-10-07T08:35:51.199Z,2.45
2022-10-07T08:40:53.049Z,2.83
2022-10-07T08:43:25.210Z,2.53
2022-10-07T08:45:56.270Z,3.00
2022-10-07T08:48:31.716Z,3.30
2022-10-07T08:51:20.407Z,2.85
2022-10-07T08:53:50.862Z,2.50
2022-10-07T08:56:23.139Z,3.35
2022-10-07T08:59:14.822Z,2.80
2022-10-07T09:02:29.121Z,4.05
2022-10-07T09:05:18.198Z,4.00
2022-10-07T09:07:50.031Z,3.20
2022-10-07T09:10:36.061Z,2.95
2022-10-07T09:13:20.161Z,3.03
2022-10-07T09:15:54.862Z,2.85
2022-10-07T09:18:31.953Z,2.90
2022-10-07T09:20:59.987Z,3.05
2022-10-07T09:23:31.462Z,2.47
2022-10-07T09:25:58.775Z,4.72
2022-10-07T09:28:30.382Z,4.65
2022-10-07T09:31:00.787Z,3.92
2022-10-07T09:33:42.829Z,2.50
2022-10-07T09:36:12.750Z,2.70
2022-10-07T09:38:45.928Z,3.10
2022-10-07T09:41:32.934Z,3.15
2022-10-07T09:46:57.519Z,2.88
2022-10-07T09:49:35.937Z,2.95
2022-10-07T09:52:11.529Z,2.50
2022-10-07T09:54:51.579Z,2.45
2022-10-07T09:57:36.166Z,2.22
2022-10-07T10:00:25.664Z,2.80
2022-10-07T10:03:10.400Z,2.38
2022-10-07T10:05:51.859Z,2.70
2022-10-07T10:08:24.925Z,2.40
2022-10-07T10:11:02.407Z,2.67
2022-10-07T10:13:39.999Z,2.17
2022-10-07T10:16:34.288Z,2.97
2022-10-07T10:19:21.595Z,2.30
2022-10-07T10:21:55.087Z,2.45
2022-10-07T10:24:51.119Z,2.83
2022-10-07T10:27:28.399Z,2.40
2022-10-07T10:30:04.457Z,2.67
2022-10-07T10:33:04.564Z,2.28
2022-10-07T10:35:40.782Z,3.35
2022-10-07T10:41:33.315Z,2.38
2022-10-07T10:44:32.826Z,2.33
2022-10-07T10:47:13.020Z,2.70
2022-10-07T10:53:22.527Z,1.63
2022-10-07T11:12:05.042Z,2.20
2022-10-07T11:14:38.152Z,2.42
2022-10-07T11:17:07.633Z,1.52
2022-10-07T11:19:40.363Z,2.05
2022-10-07T11:22:21.904Z,2.22
2022-10-07T11:24:56.957Z,2.30
2022-10-07T11:27:28.740Z,3.10
2022-10-07T11:33:07.105Z,1.90
2022-10-07T11:35:37.773Z,2.10
2022-10-07T11:38:18.643Z,2.50
2022-10-07T11:40:53.896Z,2.08
2022-10-07T11:43:30.614Z,2.78
2022-10-07T11:46:11.518Z,2.63
2022-10-07T11:48:46.296Z,2.65
2022-10-07T11:51:23.403Z,3.53
2022-10-07T11:53:54.444Z,2.33
2022-10-07T11:56:25.758Z,2.63
2022-10-07T11:59:02.811Z,2.53
2022-10-07T12:01:39.137Z,2.88
2022-10-07T12:07:39.378Z,3.65
2022-10-07T12:15:43.506Z,2.47
2022-10-07T12:26:26.453Z,3.22
2022-10-07T12:28:55.046Z,3.15
2022-10-07T12:34:10.537Z,3.28
2022-10-07T12:36:41.353Z,3.70
2022-10-07T12:41:46.851Z,3.55
2022-10-07T12:44:38.682Z,2.78
2022-10-07T12:47:21.318Z,4.03
2022-10-07T12:49:58.608Z,3.50
2022-10-07T12:52:42.362Z,3.40
2022-10-07T12:55:19.372Z,4.00
2022-10-07T12:57:52.508Z,4.22
2022-10-07T13:00:24.551Z,3.70
2022-10-07T13:03:31.857Z,3.90
2022-10-07T13:06:23.208Z,3.80
2022-10-07T13:09:20.625Z,3.25
2022-10-07T13:12:13.034Z,3.95
2022-10-07T13:15:20.157Z,3.40
2022-10-07T13:18:07.385Z,4.07
2022-10-07T13:21:00.964Z,4.00
2022-10-07T13:23:30.728Z,3.72
2022-10-07T13:26:00.724Z,3.70
2022-10-07T13:28:39.243Z,4.07
2022-10-07T13:31:17.873Z,3.20
2022-10-07T13:33:46.074Z,3.78
2022-10-07T13:36:18.699Z,2.90
2022-10-07T13:38:47.862Z,3.92
2022-10-07T13:41:21.452Z,3.50
2022-10-07T13:43:54.285Z,4.55
2022-10-07T13:46:24.286Z,3.80
2022-10-07T13:48:55.062Z,4.43
2022-10-07T13:51:36.431Z,3.65
2022-10-07T13:54:06.845Z,3.72
2022-10-07T13:56:39.792Z,3.45
2022-10-07T14:01:40.170Z,3.13
2022-10-07T14:04:20.317Z,4.00
2022-10-07T14:07:00.483Z,3.33
2022-10-07T14:09:57.340Z,3.97
2022-10-07T14:12:33.833Z,3.25
2022-10-07T14:15:05.531Z,3.90
2022-10-07T14:20:33.013Z,2.95
2022-10-07T14:23:05.501Z,3.70
2022-10-07T14:25:54.146Z,3.08
2022-10-07T14:28:30.363Z,3.85
2022-10-07T14:34:39.516Z,4.22
2022-10-07T14:37:10.992Z,3.57
2022-10-07T14:39:42.568Z,3.97
2022-10-07T14:42:18.169Z,4.40
2022-10-07T14:44:45.897Z,3.65
2022-10-07T14:47:17.610Z,4.15
2022-10-07T14:49:45.032Z,4.32
2022-10-07T14:52:32.272Z,4.53
2022-10-07T14:55:03.307Z,5.38
2022-10-07T14:57:30.832Z,5.82
2022-10-07T14:59:58.192Z,3.92
2022-10-07T15:02:25.451Z,4.18
2022-10-07T15:04:52.830Z,4.30
2022-10-07T15:07:21.426Z,3.30
2022-10-07T15:09:49.851Z,3.33
2022-10-07T15:12:17.278Z,3.83
2022-10-07T15:14:44.537Z,3.60
2022-10-07T15:17:12.593Z,4.03
2022-10-07T15:19:39.954Z,4.85
2022-10-07T15:22:07.293Z,3.80
2022-10-07T15:24:35.301Z,3.30
2022-10-07T15:27:02.621Z,4.13
2022-10-07T15:29:29.862Z,3.70
2022-10-07T15:31:57.114Z,3.83
2022-10-07T15:34:26.011Z,3.53
2022-10-07T15:36:53.397Z,3.28
2022-10-07T15:39:20.631Z,4.38
2022-10-07T15:41:48.544Z,5.03
2022-10-07T15:44:19.477Z,4.60
2022-10-07T15:46:48.273Z,4.30
2022-10-07T15:49:17.063Z,4.10
2022-10-07T15:51:46.639Z,3.85
2022-10-07T15:54:14.570Z,3.63
2022-10-07T15:56:42.876Z,4.15
2022-10-07T15:59:10.506Z,3.95
